createdAt,value
2019-02-24T00:01:32.740Z,10.30
2019-02-24T00:04:01.103Z,9.00
2019-02-24T00:06:29.428Z,9.20
2019-02-24T00:08:57.819Z,9.70
2019-02-24T00:11:26.131Z,9.97
2019-02-24T00:13:54.477Z,10.90
2019-02-24T00:16:23.455Z,10.20
2019-02-24T00:18:51.783Z,9.90
2019-02-24T00:21:20.126Z,9.80
2019-02-24T00:23:48.467Z,8.83
2019-02-24T00:26:16.880Z,9.90
2019-02-24T00:28:45.174Z,8.83
2019-02-24T00:31:13.706Z,8.60
2019-02-24T00:33:42.103Z,8.50
2019-02-24T00:36:11.035Z,10.33
2019-02-24T00:38:39.341Z,8.70
2019-02-24T00:41:07.702Z,9.57
2019-02-24T00:43:36.059Z,8.83
2019-02-24T00:46:04.484Z,10.00
2019-02-24T00:48:32.813Z,9.40
2019-02-24T00:51:01.159Z,8.17
2019-02-24T00:53:29.507Z,10.23
2019-02-24T00:55:57.860Z,8.43
2019-02-24T00:58:26.196Z,9.17
2019-02-24T01:00:54.553Z,10.23
2019-02-24T01:03:22.896Z,9.53
2019-02-24T01:05:51.242Z,10.83
2019-02-24T01:08:19.589Z,11.13
2019-02-24T01:10:47.928Z,11.50
2019-02-24T01:13:16.646Z,10.65
2019-02-24T01:15:45.005Z,10.90
2019-02-24T01:18:13.360Z,9.07
2019-02-24T01:20:41.715Z,10.23
2019-02-24T01:23:10.420Z,10.43
2019-02-24T01:25:38.841Z,9.07
2019-02-24T01:28:07.290Z,9.27
2019-02-24T01:30:35.767Z,9.43
2019-02-24T01:33:04.216Z,9.37
2019-02-24T01:35:32.551Z,8.67
2019-02-24T01:38:00.906Z,9.63
2019-02-24T01:40:29.243Z,9.07
2019-02-24T01:42:57.599Z,8.70
2019-02-24T01:45:25.974Z,8.30
2019-02-24T01:47:54.303Z,9.80
2019-02-24T01:50:22.798Z,9.23
2019-02-24T01:52:51.163Z,9.28
2019-02-24T01:55:19.525Z,9.80
2019-02-24T01:57:47.871Z,8.97
2019-02-24T02:00:16.699Z,9.63
2019-02-24T02:02:45.062Z,10.20
2019-02-24T02:05:14.026Z,9.10
2019-02-24T02:07:42.379Z,8.10
2019-02-24T02:10:11.408Z,9.07
2019-02-24T02:12:39.778Z,8.27
2019-02-24T02:15:08.543Z,8.90
2019-02-24T02:17:36.913Z,8.47
2019-02-24T02:20:07.879Z,8.40
2019-02-24T02:22:36.245Z,9.17
2019-02-24T02:25:06.006Z,8.20
2019-02-24T02:27:34.507Z,8.87
2019-02-24T02:30:02.905Z,8.97
2019-02-24T02:32:31.284Z,9.28
2019-02-24T02:34:59.629Z,7.67
2019-02-24T02:37:28.004Z,8.77
2019-02-24T02:39:56.602Z,7.47
2019-02-24T02:42:24.966Z,8.57
2019-02-24T02:44:53.290Z,8.80
2019-02-24T02:47:21.602Z,7.77
2019-02-24T02:49:50.005Z,8.27
2019-02-24T02:52:18.326Z,7.80
2019-02-24T02:54:46.692Z,7.63
2019-02-24T02:57:15.044Z,9.20
2019-02-24T02:59:43.420Z,8.88
2019-02-24T03:02:12.212Z,7.72
2019-02-24T03:04:40.545Z,8.10
2019-02-24T03:07:12.864Z,7.53
2019-02-24T03:09:41.236Z,7.67
2019-02-24T03:12:09.682Z,7.80
2019-02-24T03:14:38.023Z,8.30
2019-02-24T03:17:06.428Z,8.00
2019-02-24T03:19:34.803Z,7.75
2019-02-24T03:22:03.159Z,8.00
2019-02-24T03:24:31.513Z,8.28
2019-02-24T03:26:59.830Z,8.07
2019-02-24T03:29:28.220Z,7.60
2019-02-24T03:31:56.585Z,8.33
2019-02-24T03:34:24.951Z,7.70
2019-02-24T03:36:53.302Z,7.92
2019-02-24T03:39:21.772Z,7.85
2019-02-24T03:41:50.353Z,7.90
2019-02-24T03:44:18.721Z,7.60
2019-02-24T03:46:47.045Z,7.67
2019-02-24T03:49:15.402Z,7.50
2019-02-24T03:51:43.729Z,7.80
2019-02-24T03:54:12.620Z,7.10
2019-02-24T03:56:41.023Z,7.45
2019-02-24T03:59:15.120Z,7.43
2019-02-24T04:01:40.452Z,9.03
2019-02-24T04:04:08.857Z,7.58
2019-02-24T04:06:37.201Z,7.00
2019-02-24T04:09:05.730Z,7.17
2019-02-24T04:11:34.101Z,6.35
2019-02-24T04:14:02.509Z,5.77
2019-02-24T04:16:30.868Z,5.60
2019-02-24T04:18:59.281Z,5.63
2019-02-24T04:21:27.585Z,4.97
2019-02-24T04:23:55.926Z,6.40
2019-02-24T04:26:24.267Z,5.80
2019-02-24T04:28:52.590Z,6.40
2019-02-24T04:31:20.932Z,5.40
2019-02-24T04:33:49.256Z,5.90
2019-02-24T04:36:17.616Z,5.83
2019-02-24T04:38:45.992Z,5.13
2019-02-24T04:41:14.522Z,5.30
2019-02-24T04:43:42.886Z,6.40
2019-02-24T04:46:11.833Z,6.00
2019-02-24T04:48:40.144Z,6.10
2019-02-24T04:51:08.498Z,5.60
2019-02-24T04:53:36.836Z,6.30
2019-02-24T04:56:05.176Z,6.15
2019-02-24T04:58:33.548Z,5.73
2019-02-24T05:01:01.916Z,6.33
2019-02-24T05:03:30.428Z,5.80
2019-02-24T05:05:58.742Z,5.50
2019-02-24T05:08:27.114Z,6.10
2019-02-24T05:10:55.437Z,5.33
2019-02-24T05:13:23.795Z,4.92
2019-02-24T05:15:52.118Z,5.37
2019-02-24T05:18:20.519Z,5.53
2019-02-24T05:20:48.872Z,5.37
2019-02-24T05:23:17.250Z,5.53
2019-02-24T05:25:45.608Z,5.00
2019-02-24T05:28:13.952Z,5.58
2019-02-24T05:30:42.268Z,5.20
2019-02-24T05:33:12.404Z,4.95
2019-02-24T05:35:40.737Z,4.90
2019-02-24T05:38:09.075Z,5.30
2019-02-24T05:40:37.431Z,4.28
2019-02-24T05:43:05.761Z,4.50
2019-02-24T05:45:34.097Z,4.40
2019-02-24T05:48:02.431Z,4.20
2019-02-24T05:50:30.843Z,4.33
2019-02-24T05:52:59.179Z,4.50
2019-02-24T05:55:27.624Z,4.40
2019-02-24T05:57:55.914Z,4.63
2019-02-24T06:00:24.282Z,5.40
2019-02-24T06:02:52.622Z,5.15
2019-02-24T06:05:20.980Z,4.90
2019-02-24T06:07:49.309Z,4.83
2019-02-24T06:10:17.720Z,5.20
2019-02-24T06:12:46.085Z,5.43
2019-02-24T06:15:14.449Z,5.60
2019-02-24T06:17:42.772Z,4.80
2019-02-24T06:20:11.755Z,4.78
2019-02-24T06:22:40.109Z,4.22
2019-02-24T06:25:09.569Z,4.60
2019-02-24T06:27:37.901Z,4.57
2019-02-24T06:30:08.549Z,5.43
2019-02-24T06:32:36.844Z,5.08
2019-02-24T06:35:07.342Z,5.77
2019-02-24T06:37:35.643Z,4.90
2019-02-24T06:40:04.870Z,4.58
2019-02-24T06:42:33.189Z,4.80
2019-02-24T06:45:01.541Z,5.97
2019-02-24T06:47:29.865Z,4.95
2019-02-24T06:49:58.223Z,5.63
2019-02-24T06:52:28.100Z,5.60
2019-02-24T06:54:56.599Z,5.00
2019-02-24T06:57:24.952Z,5.22
2019-02-24T06:59:53.568Z,5.27
2019-02-24T07:02:21.995Z,4.63
2019-02-24T07:04:50.358Z,5.50
2019-02-24T07:07:18.716Z,5.50
2019-02-24T07:09:47.048Z,6.17
2019-02-24T07:12:15.386Z,5.87
2019-02-24T07:14:43.804Z,5.53
2019-02-24T07:17:12.183Z,5.37
2019-02-24T07:19:40.516Z,5.60
2019-02-24T07:22:09.128Z,5.90
2019-02-24T07:24:37.458Z,5.80
2019-02-24T07:27:05.967Z,5.90
2019-02-24T07:29:34.383Z,5.40
2019-02-24T07:32:09.200Z,6.15
2019-02-24T07:34:39.021Z,5.63
2019-02-24T07:37:12.981Z,5.77
2019-02-24T07:39:38.509Z,5.67
2019-02-24T07:42:07.514Z,6.80
2019-02-24T07:44:35.857Z,5.20
2019-02-24T07:47:04.549Z,5.13
2019-02-24T07:49:33.270Z,5.47
2019-02-24T07:52:01.692Z,5.75
2019-02-24T07:54:30.272Z,5.67
2019-02-24T07:56:58.933Z,5.07
2019-02-24T07:59:27.392Z,5.30
2019-02-24T08:01:56.164Z,5.50
2019-02-24T08:04:24.682Z,5.50
2019-02-24T08:06:53.133Z,4.90
2019-02-24T08:09:21.540Z,5.57
2019-02-24T08:11:49.876Z,5.40
2019-02-24T08:14:18.246Z,5.37
2019-02-24T08:16:46.560Z,5.20
2019-02-24T08:19:14.966Z,5.35
2019-02-24T08:21:43.289Z,5.23
2019-02-24T08:24:11.638Z,5.47
2019-02-24T08:26:40.007Z,5.20
2019-02-24T08:29:08.555Z,6.10
2019-02-24T08:31:36.930Z,5.43
2019-02-24T08:34:05.253Z,5.90
2019-02-24T08:36:33.580Z,5.70
2019-02-24T08:39:01.921Z,4.30
2019-02-24T08:41:30.355Z,4.67
2019-02-24T08:43:58.713Z,4.70
2019-02-24T08:46:27.165Z,5.37
2019-02-24T08:48:55.496Z,5.53
2019-02-24T08:51:23.989Z,5.30
2019-02-24T08:53:52.339Z,4.95
2019-02-24T08:56:20.695Z,4.50
2019-02-24T08:58:49.047Z,5.70
2019-02-24T09:01:17.369Z,4.50
2019-02-24T09:03:46.356Z,5.12
2019-02-24T09:06:14.684Z,5.20
2019-02-24T09:08:43.017Z,5.37
2019-02-24T09:11:11.468Z,5.60
2019-02-24T09:13:39.817Z,5.00
2019-02-24T09:16:08.808Z,4.70
2019-02-24T09:18:37.251Z,5.00
2019-02-24T09:21:05.679Z,4.80
2019-02-24T09:23:34.010Z,4.97
2019-02-24T09:26:02.365Z,4.30
2019-02-24T09:28:30.773Z,4.30
2019-02-24T09:31:01.066Z,5.17
2019-02-24T09:33:29.476Z,5.37
2019-02-24T09:35:57.798Z,5.53
2019-02-24T09:38:26.154Z,4.97
2019-02-24T09:40:54.477Z,4.57
2019-02-24T09:43:22.830Z,4.53
2019-02-24T09:45:51.233Z,4.95
2019-02-24T09:48:19.540Z,5.10
2019-02-24T09:50:47.877Z,4.40
2019-02-24T09:53:16.250Z,4.70
2019-02-24T09:55:44.572Z,4.40
2019-02-24T09:58:12.965Z,4.80
2019-02-24T10:00:41.280Z,3.80
2019-02-24T10:03:09.986Z,4.15
2019-02-24T10:05:38.997Z,5.08
2019-02-24T10:08:08.228Z,4.92
2019-02-24T10:10:36.662Z,4.30
2019-02-24T10:13:05.100Z,4.27
2019-02-24T10:15:33.403Z,4.70
2019-02-24T10:18:01.762Z,4.47
2019-02-24T10:20:30.096Z,4.17
2019-02-24T10:22:58.416Z,5.00
2019-02-24T10:25:26.745Z,4.87
2019-02-24T10:27:55.096Z,4.50
2019-02-24T10:30:23.420Z,4.10
2019-02-24T10:32:51.819Z,4.90
2019-02-24T10:35:20.163Z,4.70
2019-02-24T10:37:48.517Z,4.70
2019-02-24T10:40:16.857Z,4.40
2019-02-24T10:42:45.233Z,4.75
2019-02-24T10:45:15.958Z,4.10
2019-02-24T10:47:44.440Z,4.80
2019-02-24T10:50:15.244Z,4.47
2019-02-24T10:52:43.697Z,4.37
2019-02-24T10:55:12.577Z,4.27
2019-02-24T10:57:40.977Z,4.80
2019-02-24T11:00:12.640Z,4.40
2019-02-24T11:02:41.172Z,4.00
2019-02-24T11:05:10.118Z,4.33
2019-02-24T11:07:38.435Z,3.83
2019-02-24T11:10:09.576Z,4.30
2019-02-24T11:12:37.949Z,4.50
2019-02-24T11:15:09.971Z,4.40
2019-02-24T11:17:38.344Z,4.90
2019-02-24T11:20:12.096Z,3.77
2019-02-24T11:22:40.417Z,4.10
2019-02-24T11:25:10.790Z,4.20
2019-02-24T11:27:39.159Z,4.07
2019-02-24T11:30:13.825Z,3.73
2019-02-24T11:32:42.124Z,4.43
2019-02-24T11:35:12.010Z,4.40
2019-02-24T11:37:40.492Z,5.62
2019-02-24T11:40:12.722Z,4.63
2019-02-24T11:42:41.123Z,3.80
2019-02-24T11:45:10.499Z,4.20
2019-02-24T11:47:38.911Z,4.40
2019-02-24T11:50:09.902Z,3.83
2019-02-24T11:52:38.292Z,4.63
2019-02-24T11:55:08.562Z,4.20
2019-02-24T11:57:37.046Z,4.30
2019-02-24T12:00:11.384Z,3.87
2019-02-24T12:02:41.738Z,4.23
2019-02-24T12:05:12.266Z,3.70
2019-02-24T12:07:40.603Z,3.80
2019-02-24T12:10:11.641Z,4.93
2019-02-24T12:12:40.064Z,4.47
2019-02-24T12:15:11.198Z,4.43
2019-02-24T12:17:39.574Z,3.98
2019-02-24T12:20:11.091Z,4.15
2019-02-24T12:22:39.554Z,4.00
2019-02-24T12:25:09.368Z,3.87
2019-02-24T12:27:37.679Z,4.07
2019-02-24T12:30:09.778Z,3.90
2019-02-24T12:32:38.157Z,3.80
2019-02-24T12:35:07.174Z,4.65
2019-02-24T12:37:35.511Z,4.00
2019-02-24T12:40:05.024Z,4.27
2019-02-24T12:42:33.358Z,4.50
2019-02-24T12:45:01.707Z,3.80
2019-02-24T12:47:30.054Z,4.10
2019-02-24T12:50:03.109Z,4.50
2019-02-24T12:52:28.762Z,4.30
2019-02-24T12:54:57.097Z,4.93
2019-02-24T12:57:25.441Z,4.00
2019-02-24T12:59:53.768Z,4.77
2019-02-24T13:02:22.253Z,4.03
2019-02-24T13:04:50.623Z,3.95
2019-02-24T13:07:18.968Z,4.37
2019-02-24T13:09:47.315Z,4.20
2019-02-24T13:12:15.667Z,3.90
2019-02-24T13:14:44.780Z,3.80
2019-02-24T13:17:13.109Z,4.60
2019-02-24T13:19:41.446Z,3.72
2019-02-24T13:22:10.119Z,4.87
2019-02-24T13:24:38.462Z,4.23
2019-02-24T13:27:06.990Z,3.87
2019-02-24T13:29:35.382Z,4.07
2019-02-24T13:32:04.884Z,4.50
2019-02-24T13:34:33.249Z,4.00
2019-02-24T13:37:01.616Z,4.70
2019-02-24T13:39:30.213Z,6.40
2019-02-24T13:41:58.988Z,5.30
2019-02-24T13:44:27.308Z,4.23
2019-02-24T13:46:55.634Z,4.70
2019-02-24T13:49:24.730Z,4.70
2019-02-24T13:51:53.074Z,4.10
2019-02-24T13:54:21.421Z,4.42
2019-02-24T13:56:49.761Z,4.10
2019-02-24T13:59:18.106Z,4.50
2019-02-24T14:01:46.416Z,4.20
2019-02-24T14:04:14.789Z,4.80
2019-02-24T14:06:43.122Z,4.50
2019-02-24T14:09:11.584Z,4.20
2019-02-24T14:11:39.943Z,4.47
2019-02-24T14:14:09.918Z,4.97
2019-02-24T14:16:38.338Z,4.40
2019-02-24T14:19:06.967Z,4.10
2019-02-24T14:21:35.289Z,5.90
2019-02-24T14:24:03.837Z,5.00
2019-02-24T14:26:32.170Z,3.90
2019-02-24T14:29:00.465Z,4.78
2019-02-24T14:31:28.800Z,4.00
2019-02-24T14:33:57.128Z,4.47
2019-02-24T14:36:25.496Z,4.53
2019-02-24T14:38:53.866Z,3.90
2019-02-24T14:41:22.233Z,4.30
2019-02-24T14:43:50.635Z,4.20
2019-02-24T14:46:19.040Z,3.87
2019-02-24T14:48:47.574Z,4.40
2019-02-24T14:51:15.934Z,4.50
2019-02-24T14:53:44.284Z,4.97
2019-02-24T14:56:12.616Z,4.07
2019-02-24T14:58:40.993Z,4.23
2019-02-24T15:01:10.316Z,4.73
2019-02-24T15:03:38.658Z,3.60
2019-02-24T15:06:07.402Z,4.00
2019-02-24T15:08:35.755Z,4.20
2019-02-24T15:11:04.101Z,3.87
2019-02-24T15:13:32.566Z,3.87
2019-02-24T15:16:00.913Z,4.27
2019-02-24T15:18:29.267Z,3.70
2019-02-24T15:20:57.786Z,4.17
2019-02-24T15:23:26.190Z,3.90
2019-02-24T15:25:55.261Z,3.97
2019-02-24T15:28:23.676Z,4.60
2019-02-24T15:30:52.032Z,4.67
2019-02-24T15:33:20.385Z,4.10
2019-02-24T15:35:48.716Z,4.70
2019-02-24T15:38:19.037Z,4.45
2019-02-24T15:40:47.549Z,4.50
2019-02-24T15:43:16.375Z,4.23
2019-02-24T15:45:44.860Z,5.20
2019-02-24T15:48:13.954Z,4.37
2019-02-24T15:50:42.305Z,4.40
2019-02-24T15:53:10.674Z,5.00
2019-02-24T15:55:39.017Z,4.42
2019-02-24T15:58:07.617Z,4.42
2019-02-24T16:00:36.037Z,4.70
2019-02-24T16:03:04.442Z,4.33
2019-02-24T16:05:32.842Z,4.12
2019-02-24T16:08:01.382Z,5.00
2019-02-24T16:10:32.564Z,4.70
2019-02-24T16:13:01.816Z,5.15
2019-02-24T16:15:30.437Z,4.85
2019-02-24T16:17:58.835Z,4.60
2019-02-24T16:20:31.842Z,4.30
2019-02-24T16:23:00.165Z,4.23
2019-02-24T16:25:28.518Z,4.03
2019-02-24T16:27:57.029Z,4.07
2019-02-24T16:30:25.383Z,4.28
2019-02-24T16:32:54.439Z,4.20
2019-02-24T16:35:22.758Z,4.60
2019-02-24T16:37:51.386Z,4.37
2019-02-24T16:40:22.097Z,4.40
2019-02-24T16:42:50.447Z,4.40
2019-02-24T16:45:18.788Z,4.70
2019-02-24T16:47:47.178Z,4.63
2019-02-24T16:50:16.972Z,4.78
2019-02-24T16:52:45.329Z,4.85
2019-02-24T16:55:14.997Z,4.70
2019-02-24T16:57:43.397Z,4.37
2019-02-24T17:00:15.307Z,5.30
2019-02-24T17:02:43.633Z,6.17
2019-02-24T17:05:12.092Z,4.53
2019-02-24T17:07:40.538Z,5.10
2019-02-24T17:10:11.028Z,5.47
2019-02-24T17:12:39.418Z,5.33
2019-02-24T17:15:11.117Z,5.50
2019-02-24T17:17:39.505Z,5.43
2019-02-24T17:20:10.264Z,5.27
2019-02-24T17:22:38.699Z,5.27
2019-02-24T17:25:09.378Z,5.23
2019-02-24T17:27:37.688Z,5.20
2019-02-24T17:30:08.095Z,5.47
2019-02-24T17:32:36.647Z,4.70
2019-02-24T17:35:06.037Z,6.10
2019-02-24T17:37:34.449Z,5.87
2019-02-24T17:40:03.058Z,6.07
2019-02-24T17:42:31.757Z,5.73
2019-02-24T17:45:00.283Z,6.10
2019-02-24T17:47:28.679Z,5.57
2019-02-24T17:49:57.058Z,5.67
2019-02-24T17:52:25.388Z,6.00
2019-02-24T17:54:53.756Z,5.57
2019-02-24T17:57:22.242Z,5.47
2019-02-24T17:59:50.566Z,5.60
2019-02-24T18:02:18.949Z,5.07
2019-02-24T18:04:47.386Z,4.97
2019-02-24T18:07:15.718Z,4.63
2019-02-24T18:09:44.064Z,4.83
2019-02-24T18:12:13.186Z,4.80
2019-02-24T18:14:41.541Z,5.20
2019-02-24T18:17:10.501Z,4.73
2019-02-24T18:19:38.873Z,6.30
2019-02-24T18:22:07.225Z,5.50
2019-02-24T18:24:35.676Z,5.40
2019-02-24T18:27:04.211Z,5.60
2019-02-24T18:29:32.579Z,5.97
2019-02-24T18:32:00.963Z,5.57
2019-02-24T18:34:29.348Z,6.27
2019-02-24T18:36:57.761Z,5.80
2019-02-24T18:39:26.106Z,5.43
2019-02-24T18:41:54.436Z,5.33
2019-02-24T18:44:22.806Z,6.00
2019-02-24T18:46:51.150Z,7.67
2019-02-24T18:49:19.568Z,5.80
2019-02-24T18:51:47.920Z,6.78
2019-02-24T18:54:16.758Z,6.70
2019-02-24T18:56:45.153Z,5.57
2019-02-24T18:59:13.827Z,5.80
2019-02-24T19:01:42.236Z,6.00
2019-02-24T19:04:11.336Z,6.28
2019-02-24T19:06:39.667Z,6.97
2019-02-24T19:09:08.422Z,6.17
2019-02-24T19:11:36.810Z,6.93
2019-02-24T19:14:05.285Z,7.30
2019-02-24T19:16:33.584Z,8.53
2019-02-24T19:19:01.946Z,7.03
2019-02-24T19:21:30.317Z,7.00
2019-02-24T19:23:58.708Z,6.90
2019-02-24T19:26:27.106Z,7.33
2019-02-24T19:28:55.505Z,6.40
2019-02-24T19:31:23.900Z,8.65
2019-02-24T19:33:52.798Z,8.30
2019-02-24T19:36:21.132Z,6.93
2019-02-24T19:38:49.573Z,7.97
2019-02-24T19:41:17.916Z,8.50
2019-02-24T19:43:46.232Z,7.80
2019-02-24T19:46:14.643Z,8.03
2019-02-24T19:48:43.056Z,7.90
2019-02-24T19:51:12.159Z,8.53
2019-02-24T19:53:40.485Z,7.97
2019-02-24T19:56:09.000Z,7.20
2019-02-24T19:58:42.177Z,7.75
2019-02-24T20:01:14.161Z,7.87
2019-02-24T20:03:46.264Z,8.20
2019-02-24T20:06:14.670Z,9.47
2019-02-24T20:08:43.006Z,8.43
2019-02-24T20:11:11.834Z,7.85
2019-02-24T20:13:40.176Z,7.63
2019-02-24T20:16:08.537Z,8.77
2019-02-24T20:18:36.845Z,8.00
2019-02-24T20:21:07.929Z,8.23
2019-02-24T20:23:36.456Z,8.33
2019-02-24T20:26:04.811Z,8.23
2019-02-24T20:28:33.120Z,7.10
2019-02-24T20:31:01.525Z,7.10
2019-02-24T20:33:31.030Z,7.20
2019-02-24T20:35:59.378Z,6.40
2019-02-24T20:38:27.764Z,7.10
2019-02-24T20:40:56.211Z,7.00
2019-02-24T20:43:24.516Z,6.70
2019-02-24T20:45:52.868Z,6.42
2019-02-24T20:48:21.222Z,6.40
2019-02-24T20:50:51.237Z,6.87
2019-02-24T20:53:19.882Z,6.20
2019-02-24T20:55:48.191Z,7.07
2019-02-24T20:58:16.588Z,7.23
2019-02-24T21:00:46.685Z,6.07
2019-02-24T21:03:15.069Z,6.67
2019-02-24T21:05:43.462Z,8.27
2019-02-24T21:08:12.458Z,7.55
2019-02-24T21:10:40.850Z,7.70
2019-02-24T21:13:09.542Z,9.40
2019-02-24T21:15:37.926Z,10.55
2019-02-24T21:18:06.394Z,10.00
2019-02-24T21:20:34.876Z,9.28
2019-02-24T21:23:03.335Z,10.10
2019-02-24T21:25:32.011Z,9.57
2019-02-24T21:28:01.405Z,10.25
2019-02-24T21:30:31.711Z,9.53
2019-02-24T21:33:00.174Z,9.48
2019-02-24T21:35:28.542Z,9.27
2019-02-24T21:37:56.971Z,11.23
2019-02-24T21:40:25.361Z,10.67
2019-02-24T21:42:53.900Z,10.80
2019-02-24T21:45:24.608Z,10.00
2019-02-24T21:47:52.944Z,10.30
2019-02-24T21:50:21.999Z,11.20
2019-02-24T21:52:50.353Z,10.57
2019-02-24T21:55:18.760Z,10.48
2019-02-24T21:57:47.138Z,10.40
2019-02-24T22:00:18.791Z,9.93
2019-02-24T22:02:47.204Z,9.93
2019-02-24T22:05:15.959Z,10.03
2019-02-24T22:07:44.564Z,10.48
2019-02-24T22:10:14.587Z,9.57
2019-02-24T22:12:42.932Z,10.30
2019-02-24T22:15:15.677Z,10.03
2019-02-24T22:17:44.110Z,8.90
2019-02-24T22:20:15.027Z,10.70
2019-02-24T22:22:43.443Z,9.45
2019-02-24T22:25:14.139Z,10.00
2019-02-24T22:27:42.688Z,10.25
2019-02-24T22:30:15.345Z,9.30
2019-02-24T22:32:43.746Z,9.57
2019-02-24T22:35:13.026Z,9.77
2019-02-24T22:37:41.346Z,9.50
2019-02-24T22:40:12.692Z,10.10
2019-02-24T22:42:41.242Z,9.80
2019-02-24T22:45:16.442Z,10.53
2019-02-24T22:47:44.899Z,10.93
2019-02-24T22:50:14.694Z,10.60
2019-02-24T22:52:43.388Z,9.77
2019-02-24T22:55:14.240Z,9.80
2019-02-24T22:57:42.597Z,10.20
2019-02-24T23:00:16.375Z,9.83
2019-02-24T23:02:44.982Z,9.37
2019-02-24T23:05:15.344Z,11.10
2019-02-24T23:08:11.655Z,10.93
2019-02-24T23:10:40.037Z,10.60
2019-02-24T23:13:08.390Z,10.30
2019-02-24T23:15:36.874Z,10.20
2019-02-24T23:18:05.346Z,11.60
2019-02-24T23:20:33.688Z,10.28
2019-02-24T23:23:02.052Z,10.43
2019-02-24T23:25:30.447Z,9.87
2019-02-24T23:27:58.768Z,11.10
2019-02-24T23:30:27.082Z,10.60
2019-02-24T23:32:55.462Z,10.20
2019-02-24T23:35:23.862Z,9.57
2019-02-24T23:37:52.284Z,9.33
2019-02-24T23:40:20.688Z,10.30
2019-02-24T23:42:49.047Z,11.03
2019-02-24T23:45:17.566Z,11.73
2019-02-24T23:47:45.959Z,11.55
2019-02-24T23:50:14.578Z,11.48
2019-02-24T23:52:42.930Z,10.10
2019-02-24T23:55:12.569Z,9.17
2019-02-24T23:57:40.897Z,8.80
